Time;durP1;ratioP1;P1;durP2;ratioP2;P2;SDS_P1;SDS_P2;PMS_P1;PMS_P2;Temp;Humidity;BMP_temperature;BMP_pressure;BME280_temperature;BME280_humidity;BME280_pressure;Samples;Min_cycle;Max_cycle;Signal;HPM_P1;HPM_P2
2024/03/01 00:00:36;;;;;;;;;;;;;;;4.75;68.79;97067.53;5055787;28;19979;-91
2024/03/01 00:03:05;;;;;;;;;;;;;;;4.68;68.82;97062.50;5056478;28;20526;-92
2024/03/01 00:05:35;;;;;;;;;;;;;;;4.77;68.68;97054.59;5065775;28;19937;-92
2024/03/01 00:08:05;;;;;;;;;;;;;;;4.89;68.76;97052.22;5068156;28;20376;-92
2024/03/01 00:10:33;;;;;;;;;;;;;;;4.94;68.35;97049.44;5056721;28;19924;-93
2024/03/01 00:13:01;;;;;;;;;;;;;;;4.93;68.19;97047.03;5056381;28;19966;-91
2024/03/01 00:15:32;;;;;;;;;;;;;;;4.92;68.40;97051.63;5069915;28;19924;-91
2024/03/01 00:18:00;;;;;;;;;;;;;;;5.00;68.04;97045.56;5072066;28;19982;-91
2024/03/01 00:20:28;;;;;;;;;;;;;;;4.97;68.13;97048.84;5055508;28;19925;-92
2024/03/01 00:22:56;;;;;;;;;;;;;;;4.90;68.17;97043.06;5073402;28;19928;-92
2024/03/01 00:25:25;;;;;;;;;;;;;;;4.84;68.61;97043.44;5071476;28;19932;-92
2024/03/01 00:27:53;;;;;;;;;;;;;;;4.93;67.86;97030.91;5054689;28;19924;-92
2024/03/01 00:30:21;;;;;;;;;;;;;;;5.04;67.91;97034.22;5072974;28;19925;-91
2024/03/01 00:32:50;;;;;;;;;;;;;;;4.82;68.17;97026.78;5055630;28;19979;-91
2024/03/01 00:35:17;;;;;;;;;;;;;;;4.86;68.37;97023.22;5054070;28;20412;-92
2024/03/01 00:41:16;;;;;;;;;;;;;;;4.73;68.34;97032.84;5042497;28;19927;-92
2024/03/01 00:43:44;;;;;;;;;;;;;;;4.53;68.95;97029.66;5073071;28;19932;-92
2024/03/01 00:46:12;;;;;;;;;;;;;;;4.66;69.41;97027.03;5070947;28;20376;-92
2024/03/01 00:48:41;;;;;;;;;;;;;;;4.55;69.68;97020.22;5052197;28;19962;-92
2024/03/01 00:51:09;;;;;;;;;;;;;;;4.36;70.48;97017.56;5054910;28;19931;-92
2024/03/01 00:53:37;;;;;;;;;;;;;;;4.69;69.34;97020.28;5051581;28;20014;-81
2024/03/01 00:56:05;;;;;;;;;;;;;;;4.52;69.92;97012.75;5068685;28;19967;-80
2024/03/01 00:58:34;;;;;;;;;;;;;;;4.67;69.22;97012.50;5069348;28;19999;-79
2024/03/01 01:01:02;;;;;;;;;;;;;;;4.47;69.90;97005.56;5069651;28;19925;-83
2024/03/01 01:03:30;;;;;;;;;;;;;;;4.51;69.67;96995.00;5053469;28;19928;-86
2024/03/01 01:06:00;;;;;;;;;;;;;;;4.44;69.46;97005.34;5070208;28;19929;-85
2024/03/01 01:08:31;;;;;;;;;;;;;;;4.43;69.60;97004.56;5053779;28;19928;-84
2024/03/01 01:10:58;;;;;;;;;;;;;;;4.50;69.53;97000.69;5073988;28;19928;-85
2024/03/01 01:13:27;;;;;;;;;;;;;;;4.50;68.56;97001.50;5057902;28;19924;-84
2024/03/01 01:15:56;;;;;;;;;;;;;;;4.53;69.01;97000.09;5084794;28;20344;-87
2024/03/01 01:18:24;;;;;;;;;;;;;;;4.46;68.56;96995.09;5074791;28;19925;-86
2024/03/01 01:20:52;;;;;;;;;;;;;;;4.45;68.76;97001.56;5042267;28;19931;-85
2024/03/01 01:26:31;;;;;;;;;;;;;;;4.22;69.61;96991.72;5053687;28;20043;-87
2024/03/01 01:28:59;;;;;;;;;;;;;;;4.10;70.03;96984.91;5046227;28;20341;-86
2024/03/01 01:31:29;;;;;;;;;;;;;;;4.27;69.26;96986.28;5054202;28;19924;-86
2024/03/01 01:33:56;;;;;;;;;;;;;;;4.31;68.92;96979.19;5071075;28;19925;-87
2024/03/01 01:36:25;;;;;;;;;;;;;;;4.07;69.89;96985.50;5052262;28;19924;-86
2024/03/01 01:38:52;;;;;;;;;;;;;;;4.11;69.40;96981.13;5071841;28;20308;-82
2024/03/01 01:41:21;;;;;;;;;;;;;;;4.09;69.70;96977.91;5071323;28;20013;-85
2024/03/01 01:43:49;;;;;;;;;;;;;;;4.26;69.04;96977.41;5072043;28;20434;-86
2024/03/01 01:49:50;;;;;;;;;;;;;;;4.02;69.41;96984.75;5072810;28;19921;-85
2024/03/01 01:52:18;;;;;;;;;;;;;;;3.55;70.95;96981.91;5057505;28;19925;-85
2024/03/01 01:54:46;;;;;;;;;;;;;;;3.89;70.20;96984.41;5076352;28;20327;-85
2024/03/01 01:57:14;;;;;;;;;;;;;;;4.14;69.16;96988.59;5075888;28;19928;-86
2024/03/01 01:59:41;;;;;;;;;;;;;;;4.15;68.91;96981.31;5055560;28;19929;-86
2024/03/01 02:02:09;;;;;;;;;;;;;;;4.18;69.19;96978.06;5073921;28;20375;-79
2024/03/01 02:04:37;;;;;;;;;;;;;;;4.32;68.45;96983.50;5073554;28;19935;-79
2024/03/01 02:07:06;;;;;;;;;;;;;;;4.39;68.31;96975.84;5060783;28;19924;-79
2024/03/01 02:09:34;;;;;;;;;;;;;;;4.28;68.13;96969.03;5073904;28;20039;-78
2024/03/01 02:12:02;;;;;;;;;;;;;;;4.07;69.28;96961.28;5072458;28;19932;-79
2024/03/01 02:14:30;;;;;;;;;;;;;;;3.99;69.78;96967.31;5044869;28;19936;-78
2024/03/01 02:16:58;;;;;;;;;;;;;;;3.93;69.69;96960.44;5071903;28;19924;-78
2024/03/01 02:19:26;;;;;;;;;;;;;;;3.97;69.74;96958.75;5068274;28;19924;-79
2024/03/01 02:21:58;;;;;;;;;;;;;;;3.93;69.53;96963.09;5069718;28;19928;-78
2024/03/01 02:24:27;;;;;;;;;;;;;;;4.01;69.59;96961.66;5052084;28;19931;-78
2024/03/01 02:26:54;;;;;;;;;;;;;;;3.98;69.69;96963.03;5072681;28;19949;-77
2024/03/01 02:29:26;;;;;;;;;;;;;;;3.75;70.31;96955.88;5061234;28;19929;-76
2024/03/01 02:31:55;;;;;;;;;;;;;;;3.89;69.69;96948.69;5070293;28;20019;-78
2024/03/01 02:34:22;;;;;;;;;;;;;;;3.92;69.78;96956.94;5067672;28;20463;-78
2024/03/01 02:36:50;;;;;;;;;;;;;;;3.88;69.73;96958.59;5073052;28;19928;-77
2024/03/01 02:39:18;;;;;;;;;;;;;;;4.01;69.30;96957.09;5076434;28;20309;-78
2024/03/01 02:41:48;;;;;;;;;;;;;;;4.15;68.63;96952.56;5061802;28;19925;-79
2024/03/01 02:44:15;;;;;;;;;;;;;;;4.23;68.19;96948.41;5053528;28;19924;-77
2024/03/01 02:46:43;;;;;;;;;;;;;;;4.14;68.58;96942.91;5072553;28;19924;-77
2024/03/01 02:49:11;;;;;;;;;;;;;;;3.82;70.17;96937.47;5072151;28;20387;-77
2024/03/01 02:51:39;;;;;;;;;;;;;;;3.95;69.81;96942.13;5053269;28;19935;-77
2024/03/01 02:54:08;;;;;;;;;;;;;;;3.45;71.39;96939.06;5077361;28;20371;-79
2024/03/01 02:56:36;;;;;;;;;;;;;;;3.84;70.43;96944.19;5060307;28;19932;-77
2024/03/01 02:59:05;;;;;;;;;;;;;;;3.98;70.06;96948.81;5063487;28;19925;-79
2024/03/01 03:04:25;;;;;;;;;;;;;;;4.02;69.91;96941.75;5070342;28;19960;-78
2024/03/01 03:06:57;;;;;;;;;;;;;;;3.95;70.13;96942.13;5062586;28;19970;-77
2024/03/01 03:09:25;;;;;;;;;;;;;;;4.03;69.99;96930.72;5062971;28;19924;-76
2024/03/01 03:11:53;;;;;;;;;;;;;;;3.92;69.60;96937.34;5071205;28;19924;-81
2024/03/01 03:14:22;;;;;;;;;;;;;;;3.85;70.53;96935.03;5069521;28;20300;-79
2024/03/01 03:16:51;;;;;;;;;;;;;;;3.92;69.89;96938.13;5069275;28;19974;-81
2024/03/01 03:19:23;;;;;;;;;;;;;;;3.82;70.46;96938.28;5071031;28;19932;-81
2024/03/01 03:21:51;;;;;;;;;;;;;;;3.90;69.97;96951.06;5070903;28;19963;-79
2024/03/01 03:24:19;;;;;;;;;;;;;;;3.90;69.49;96955.66;5053554;28;19931;-78
2024/03/01 03:26:46;;;;;;;;;;;;;;;3.93;69.45;96960.44;5071528;28;19932;-77
2024/03/01 03:29:14;;;;;;;;;;;;;;;3.93;69.88;96960.44;5067822;28;19925;-77
2024/03/01 03:31:43;;;;;;;;;;;;;;;3.92;69.31;96948.09;5064562;28;19925;-75
2024/03/01 03:34:11;;;;;;;;;;;;;;;3.82;69.51;96956.28;5074238;28;19932;-82
2024/03/01 03:36:39;;;;;;;;;;;;;;;3.73;70.13;96955.34;5049343;28;19926;-78
2024/03/01 03:39:07;;;;;;;;;;;;;;;3.74;69.32;96946.22;5069912;28;20328;-80
2024/03/01 03:41:34;;;;;;;;;;;;;;;3.74;69.47;96946.22;5051739;28;19928;-79
2024/03/01 03:44:02;;;;;;;;;;;;;;;3.72;69.80;96943.00;5068021;28;20338;-78
2024/03/01 03:46:31;;;;;;;;;;;;;;;3.68;70.17;96950.88;5066875;28;19971;-78
2024/03/01 03:49:00;;;;;;;;;;;;;;;3.45;70.71;96952.50;5065196;28;19982;-77
2024/03/01 03:51:28;;;;;;;;;;;;;;;3.71;70.35;96958.31;5047331;28;20023;-79
2024/03/01 03:53:56;;;;;;;;;;;;;;;3.85;69.73;96969.16;5065259;28;19947;-78
2024/03/01 03:56:24;;;;;;;;;;;;;;;3.98;69.13;96984.53;5064465;28;19998;-80
2024/03/01 03:58:52;;;;;;;;;;;;;;;3.88;68.46;96979.31;5070246;28;19928;-80
2024/03/01 04:01:21;;;;;;;;;;;;;;;3.59;69.15;96972.19;5066948;28;19924;-76
2024/03/01 04:03:50;;;;;;;;;;;;;;;3.52;69.62;96977.13;5069910;28;19928;-78
2024/03/01 04:06:21;;;;;;;;;;;;;;;3.31;70.40;96976.56;5060654;28;19932;-78
2024/03/01 04:08:49;;;;;;;;;;;;;;;3.04;71.37;96979.84;5067903;28;19932;-78
2024/03/01 04:11:17;;;;;;;;;;;;;;;3.34;71.05;96975.19;5069464;28;19925;-76
2024/03/01 04:13:46;;;;;;;;;;;;;;;3.36;70.49;96967.66;5040054;28;19925;-76
2024/03/01 04:16:14;;;;;;;;;;;;;;;3.44;70.56;96967.00;5060982;28;19977;-77
2024/03/01 04:18:41;;;;;;;;;;;;;;;3.40;70.24;96968.66;5071655;28;20380;-76
2024/03/01 04:21:09;;;;;;;;;;;;;;;3.35;70.51;96966.84;5075004;28;20343;-76
2024/03/01 04:23:39;;;;;;;;;;;;;;;2.85;72.48;96965.56;5061076;28;19925;-76
2024/03/01 04:26:09;;;;;;;;;;;;;;;3.14;72.18;96986.94;5065020;28;20436;-76
2024/03/01 04:28:38;;;;;;;;;;;;;;;3.11;71.64;96976.81;5065885;28;20023;-77
2024/03/01 04:31:05;;;;;;;;;;;;;;;3.28;71.27;96981.72;5068083;28;19972;-78
2024/03/01 04:33:34;;;;;;;;;;;;;;;3.42;70.69;96988.00;5069085;28;19924;-81
2024/03/01 04:36:02;;;;;;;;;;;;;;;3.27;71.07;96988.16;5066127;28;19931;-79
2024/03/01 04:38:32;;;;;;;;;;;;;;;3.41;70.69;96991.78;5067313;28;19925;-80
2024/03/01 04:41:01;;;;;;;;;;;;;;;3.56;69.70;96999.59;5069402;28;19924;-79
2024/03/01 04:43:28;;;;;;;;;;;;;;;3.54;69.18;97003.69;5051594;28;19925;-78
2024/03/01 04:45:57;;;;;;;;;;;;;;;3.48;69.75;97013.69;5060736;28;20018;-79
2024/03/01 04:48:25;;;;;;;;;;;;;;;3.52;69.62;97009.34;5065665;28;19931;-79
2024/03/01 04:50:53;;;;;;;;;;;;;;;3.58;68.61;97010.88;5067717;28;19928;-77
2024/03/01 04:53:21;;;;;;;;;;;;;;;3.66;68.54;97014.81;5076463;28;19924;-76
2024/03/01 04:55:48;;;;;;;;;;;;;;;3.69;68.35;97014.22;5071387;28;19925;-77
2024/03/01 04:58:17;;;;;;;;;;;;;;;3.65;67.97;97021.25;5069551;28;20277;-77
2024/03/01 05:00:46;;;;;;;;;;;;;;;3.29;69.07;97020.88;5067501;28;19936;-77
2024/03/01 05:03:14;;;;;;;;;;;;;;;3.37;68.26;97028.31;5067781;28;19928;-78
2024/03/01 05:05:43;;;;;;;;;;;;;;;3.54;68.11;97022.47;5065579;28;19990;-80
2024/03/01 05:08:11;;;;;;;;;;;;;;;3.20;68.62;97019.94;5062893;28;19975;-79
2024/03/01 05:10:39;;;;;;;;;;;;;;;3.03;69.07;97023.84;5074778;28;19924;-78
2024/03/01 05:13:08;;;;;;;;;;;;;;;2.84;69.77;97018.41;5069134;28;20300;-78
2024/03/01 05:15:38;;;;;;;;;;;;;;;2.67;70.16;97030.66;5070234;28;20481;-79
2024/03/01 05:18:06;;;;;;;;;;;;;;;3.12;68.68;97032.06;5068225;28;19932;-79
2024/03/01 05:20:34;;;;;;;;;;;;;;;3.36;68.36;97043.63;5068961;28;20015;-79
2024/03/01 05:23:02;;;;;;;;;;;;;;;3.39;67.20;97039.56;5052034;28;20015;-80
2024/03/01 05:25:30;;;;;;;;;;;;;;;3.86;66.20;97049.47;5072824;28;20016;-79
2024/03/01 05:28:01;;;;;;;;;;;;;;;3.94;65.66;97038.09;5063562;28;19931;-79
2024/03/01 05:30:31;;;;;;;;;;;;;;;3.77;66.11;97032.38;5072245;28;19928;-81
2024/03/01 05:33:12;;;;;;;;;;;;;;;3.82;66.30;97051.13;5073089;28;19925;-79
2024/03/01 05:35:40;;;;;;;;;;;;;;;3.75;66.10;97041.84;5068535;28;19925;-82
2024/03/01 05:38:08;;;;;;;;;;;;;;;3.67;66.63;97040.56;5049875;28;19924;-77
2024/03/01 05:40:37;;;;;;;;;;;;;;;3.48;67.59;97045.91;5074316;28;19925;-78
2024/03/01 05:43:12;;;;;;;;;;;;;;;3.66;66.84;97042.47;5073113;28;19929;-77
2024/03/01 05:45:41;;;;;;;;;;;;;;;3.26;68.69;97046.44;5080057;28;19924;-79
2024/03/01 05:48:12;;;;;;;;;;;;;;;3.54;68.12;97046.66;5070675;28;19925;-78
2024/03/01 05:50:40;;;;;;;;;;;;;;;3.77;67.19;97058.44;5051970;28;19932;-81
2024/03/01 05:53:14;;;;;;;;;;;;;;;3.83;67.11;97059.97;5074180;28;19940;-85
2024/03/01 05:55:42;;;;;;;;;;;;;;;3.88;67.25;97055.34;5082402;28;19925;-84
2024/03/01 05:58:10;;;;;;;;;;;;;;;3.85;67.71;97061.31;5073625;28;20303;-84
2024/03/01 06:00:41;;;;;;;;;;;;;;;3.91;67.60;97059.34;5074437;28;20368;-87
2024/03/01 06:03:09;;;;;;;;;;;;;;;3.71;68.64;97064.97;5067633;28;19925;-79
2024/03/01 06:05:38;;;;;;;;;;;;;;;3.91;67.47;97064.72;5055895;28;19928;-80
2024/03/01 06:08:06;;;;;;;;;;;;;;;3.99;67.58;97064.06;5073589;28;20023;-92
2024/03/01 06:10:35;;;;;;;;;;;;;;;4.26;66.77;97065.31;5062298;28;19932;-77
2024/03/01 06:13:03;;;;;;;;;;;;;;;4.31;66.29;97071.41;5073236;28;19935;-82
2024/03/01 06:15:31;;;;;;;;;;;;;;;4.09;66.99;97079.25;5051946;28;20142;-87
2024/03/01 06:17:58;;;;;;;;;;;;;;;4.27;67.01;97081.19;5078041;28;19924;-89
2024/03/01 06:20:26;;;;;;;;;;;;;;;4.44;66.42;97080.66;5062340;28;20376;-90
2024/03/01 06:22:56;;;;;;;;;;;;;;;4.37;66.23;97089.09;5059004;28;19998;-91
2024/03/01 06:25:24;;;;;;;;;;;;;;;4.36;66.64;97084.00;5049059;28;19939;-89
2024/03/01 06:27:52;;;;;;;;;;;;;;;4.49;66.64;97085.16;5079595;28;19975;-89
2024/03/01 06:30:20;;;;;;;;;;;;;;;4.42;66.42;97083.66;5053014;28;19929;-91
2024/03/01 06:32:48;;;;;;;;;;;;;;;4.40;66.27;97076.94;5057537;28;19978;-91
2024/03/01 06:35:16;;;;;;;;;;;;;;;4.14;67.50;97071.13;5062180;28;19972;-93
2024/03/01 06:37:44;;;;;;;;;;;;;;;4.35;67.87;97066.25;5054826;28;19952;-86
2024/03/01 06:40:13;;;;;;;;;;;;;;;4.36;67.08;97065.16;5054882;28;19924;-90
2024/03/01 06:42:41;;;;;;;;;;;;;;;4.43;67.40;97066.41;5056381;28;19924;-91
2024/03/01 06:45:10;;;;;;;;;;;;;;;4.53;66.66;97070.03;5069768;28;19929;-83
2024/03/01 06:47:38;;;;;;;;;;;;;;;4.47;66.96;97075.50;5072572;28;19924;-91
2024/03/01 06:50:08;;;;;;;;;;;;;;;4.70;66.46;97075.69;5058909;28;19929;-91
2024/03/01 06:55:40;;;;;;;;;;;;;;;4.51;66.59;97082.97;5058408;28;19940;-95
2024/03/01 06:58:08;;;;;;;;;;;;;;;4.57;65.70;97071.84;5074914;28;19986;-94
2024/03/01 07:00:44;;;;;;;;;;;;;;;4.61;65.44;97078.25;5075003;28;19924;-95
2024/03/01 07:03:12;;;;;;;;;;;;;;;4.39;66.68;97075.34;5055870;28;19931;-79
2024/03/01 07:05:40;;;;;;;;;;;;;;;3.82;68.21;97071.81;5061241;28;20410;-77
2024/03/01 07:08:07;;;;;;;;;;;;;;;3.97;68.21;97071.63;5071953;28;19967;-78
2024/03/01 07:10:35;;;;;;;;;;;;;;;4.05;68.18;97068.31;5080245;28;20411;-78
2024/03/01 07:13:05;;;;;;;;;;;;;;;4.29;67.22;97072.81;5073387;28;19925;-78
2024/03/01 07:15:32;;;;;;;;;;;;;;;4.35;67.53;97068.94;5071911;28;19924;-78
2024/03/01 07:18:01;;;;;;;;;;;;;;;4.31;67.06;97070.63;5064283;28;20202;-78
2024/03/01 07:20:29;;;;;;;;;;;;;;;4.31;67.44;97067.94;5064657;28;19924;-78
2024/03/01 07:22:57;;;;;;;;;;;;;;;3.80;68.36;97050.63;5056311;28;20435;-78
2024/03/01 07:25:24;;;;;;;;;;;;;;;4.13;67.86;97056.88;5059175;28;20066;-78
2024/03/01 07:27:52;;;;;;;;;;;;;;;4.49;67.04;97067.13;5079943;28;20395;-76
2024/03/01 07:30:21;;;;;;;;;;;;;;;4.58;66.30;97059.19;5062689;28;20016;-77
2024/03/01 07:32:50;;;;;;;;;;;;;;;4.43;66.86;97065.63;5052954;28;20015;-77
2024/03/01 07:35:18;;;;;;;;;;;;;;;4.54;66.77;97050.91;5059315;28;19925;-76
2024/03/01 07:37:46;;;;;;;;;;;;;;;4.39;67.67;97053.84;5068182;28;19928;-77
2024/03/01 07:40:14;;;;;;;;;;;;;;;4.49;67.00;97061.75;5065081;28;19947;-78
2024/03/01 07:42:42;;;;;;;;;;;;;;;4.65;67.20;97056.94;5068460;28;19929;-77
2024/03/01 07:45:10;;;;;;;;;;;;;;;4.86;66.75;97057.41;5071231;28;20027;-78
2024/03/01 07:47:42;;;;;;;;;;;;;;;4.81;66.80;97054.78;5057991;28;19984;-77
2024/03/01 07:50:10;;;;;;;;;;;;;;;4.62;67.98;97057.50;5068020;28;19925;-76
2024/03/01 07:52:39;;;;;;;;;;;;;;;4.33;68.47;97066.56;5052902;28;19979;-77
2024/03/01 07:55:07;;;;;;;;;;;;;;;4.62;67.97;97063.69;5067953;28;19963;-77
2024/03/01 07:57:36;;;;;;;;;;;;;;;4.47;68.01;97066.63;5070967;28;19983;-77
2024/03/01 08:00:04;;;;;;;;;;;;;;;4.23;68.22;97065.91;5060067;28;19965;-77
2024/03/01 08:02:32;;;;;;;;;;;;;;;4.32;68.26;97075.72;5061695;28;19955;-80
2024/03/01 08:05:02;;;;;;;;;;;;;;;4.52;67.17;97071.13;5069926;28;19931;-79
2024/03/01 08:07:30;;;;;;;;;;;;;;;4.47;67.59;97072.81;5073392;28;19970;-79
2024/03/01 08:09:58;;;;;;;;;;;;;;;4.35;68.16;97074.34;5074003;28;19928;-79
2024/03/01 08:12:25;;;;;;;;;;;;;;;4.40;68.32;97072.38;5070655;28;19971;-86
2024/03/01 08:14:53;;;;;;;;;;;;;;;4.86;67.61;97074.34;5051108;28;20000;-87
2024/03/01 08:17:21;;;;;;;;;;;;;;;4.93;66.84;97073.97;5052821;28;19925;-86
2024/03/01 08:19:50;;;;;;;;;;;;;;;4.57;68.07;97087.97;5068736;28;19975;-87
2024/03/01 08:22:20;;;;;;;;;;;;;;;5.11;65.82;97073.09;5051038;28;19924;-86
2024/03/01 08:24:48;;;;;;;;;;;;;;;5.04;66.39;97072.69;5053185;28;19936;-87
2024/03/01 08:27:16;;;;;;;;;;;;;;;5.00;66.26;97082.44;5058631;28;19928;-87
2024/03/01 08:29:45;;;;;;;;;;;;;;;5.27;65.94;97081.69;5071003;28;19956;-86
2024/03/01 08:32:17;;;;;;;;;;;;;;;5.33;65.71;97085.13;5069729;28;19924;-90
2024/03/01 08:34:46;;;;;;;;;;;;;;;5.21;66.01;97081.00;5065064;28;19947;-89
2024/03/01 08:37:15;;;;;;;;;;;;;;;5.41;65.98;97073.66;5062527;28;19952;-89
2024/03/01 08:39:46;;;;;;;;;;;;;;;5.05;66.48;97074.28;5073815;28;19931;-90
2024/03/01 08:42:14;;;;;;;;;;;;;;;5.05;67.25;97074.28;5046878;28;19925;-90
2024/03/01 08:44:54;;;;;;;;;;;;;;;5.19;67.49;97069.72;5051070;28;19924;-89
2024/03/01 08:47:27;;;;;;;;;;;;;;;5.47;66.85;97067.06;5065745;28;19929;-86
2024/03/01 08:50:12;;;;;;;;;;;;;;;5.55;66.40;97066.38;5064094;28;19975;-85
2024/03/01 08:52:41;;;;;;;;;;;;;;;5.45;66.66;97063.88;5061019;28;19947;-85
2024/03/01 08:55:36;;;;;;;;;;;;;;;5.50;66.71;97074.56;5066977;28;19955;-84
2024/03/01 08:58:04;;;;;;;;;;;;;;;5.34;67.65;97079.44;5049226;28;19930;-87
2024/03/01 09:00:37;;;;;;;;;;;;;;;5.31;67.81;97079.22;5046452;28;20002;-86
2024/03/01 09:03:05;;;;;;;;;;;;;;;5.33;67.94;97077.84;5067249;28;19925;-84
2024/03/01 09:05:34;;;;;;;;;;;;;;;5.46;68.06;97077.06;5070605;28;19925;-86
2024/03/01 09:08:03;;;;;;;;;;;;;;;5.79;67.06;97079.66;5069457;28;19924;-84
2024/03/01 09:10:36;;;;;;;;;;;;;;;5.86;66.62;97084.63;5068335;28;20431;-82
2024/03/01 09:13:04;;;;;;;;;;;;;;;5.74;67.15;97080.53;5071591;28;19925;-96
2024/03/01 09:15:36;;;;;;;;;;;;;;;5.57;67.92;97077.66;5068922;28;19982;-80
2024/03/01 09:18:04;;;;;;;;;;;;;;;5.59;67.48;97085.44;5064372;28;19956;-96
2024/03/01 09:20:34;;;;;;;;;;;;;;;5.83;66.58;97075.25;5053153;28;19928;-96
2024/03/01 09:23:01;;;;;;;;;;;;;;;5.61;67.88;97075.97;5052954;28;19982;-76
2024/03/01 09:25:50;;;;;;;;;;;;;;;5.75;67.58;97079.47;5056327;28;19928;-76
2024/03/01 09:28:20;;;;;;;;;;;;;;;5.83;67.79;97080.66;5056115;28;19933;-76
2024/03/01 09:30:50;;;;;;;;;;;;;;;5.82;67.89;97091.75;5043164;28;19979;-76
2024/03/01 09:33:18;;;;;;;;;;;;;;;5.83;67.41;97083.34;5067898;28;20015;-76
2024/03/01 09:35:50;;;;;;;;;;;;;;;6.19;67.25;97086.13;5062735;28;19924;-76
2024/03/01 09:38:18;;;;;;;;;;;;;;;6.24;66.34;97090.63;5062910;28;20412;-75
2024/03/01 09:41:13;;;;;;;;;;;;;;;6.34;66.57;97090.41;5045518;28;20042;-76
2024/03/01 09:43:44;;;;;;;;;;;;;;;6.47;66.08;97084.16;5016316;28;20388;-76
2024/03/01 09:46:14;;;;;;;;;;;;;;;6.62;65.95;97088.41;5052235;28;19924;-76
2024/03/01 09:48:46;;;;;;;;;;;;;;;6.75;65.30;97089.44;5068780;28;19952;-77
2024/03/01 09:51:22;;;;;;;;;;;;;;;6.66;65.45;97081.31;5064970;28;19924;-76
2024/03/01 09:53:54;;;;;;;;;;;;;;;6.96;64.77;97089.75;5060099;28;19929;-76
2024/03/01 09:56:23;;;;;;;;;;;;;;;6.94;65.09;97084.66;5044766;28;20014;-76
2024/03/01 09:58:56;;;;;;;;;;;;;;;6.78;65.03;97089.66;5047105;28;19933;-77
2024/03/01 10:01:25;;;;;;;;;;;;;;;6.98;64.64;97087.56;5058900;28;19928;-76
2024/03/01 10:04:01;;;;;;;;;;;;;;;7.12;64.63;97092.88;5049756;28;19931;-76
2024/03/01 10:06:38;;;;;;;;;;;;;;;7.04;64.68;97087.13;5068979;28;19935;-76
2024/03/01 10:09:11;;;;;;;;;;;;;;;7.41;63.87;97085.09;5070023;28;19924;-76
2024/03/01 10:11:44;;;;;;;;;;;;;;;7.56;63.79;97087.41;5067049;28;19932;-76
2024/03/01 10:14:16;;;;;;;;;;;;;;;7.73;63.24;97085.88;5070612;28;19932;-76
2024/03/01 10:16:47;;;;;;;;;;;;;;;7.66;62.97;97083.59;5069678;28;19925;-76
2024/03/01 10:19:19;;;;;;;;;;;;;;;7.75;63.01;97076.34;5063970;28;20451;-77
2024/03/01 10:21:52;;;;;;;;;;;;;;;7.78;62.74;97077.63;5068271;28;19929;-78
2024/03/01 10:24:27;;;;;;;;;;;;;;;7.75;63.51;97081.75;5063985;28;19924;-86
2024/03/01 10:26:59;;;;;;;;;;;;;;;7.83;63.19;97083.69;5079834;28;19925;-85
2024/03/01 10:29:28;;;;;;;;;;;;;;;7.81;62.95;97082.41;5058082;28;19928;-85
2024/03/01 10:31:58;;;;;;;;;;;;;;;7.95;63.44;97076.88;5051166;28;19924;-86
2024/03/01 10:34:27;;;;;;;;;;;;;;;7.99;62.88;97067.81;5075273;28;19928;-86
2024/03/01 10:36:56;;;;;;;;;;;;;;;8.14;62.61;97074.69;5073357;28;19971;-86
2024/03/01 10:39:25;;;;;;;;;;;;;;;8.21;62.35;97080.44;5056797;28;19924;-86
2024/03/01 10:42:02;;;;;;;;;;;;;;;8.16;62.77;97091.41;5055965;28;19924;-86
2024/03/01 10:44:34;;;;;;;;;;;;;;;8.38;61.91;97075.06;5062422;28;19991;-85
2024/03/01 10:47:04;;;;;;;;;;;;;;;8.26;61.80;97079.50;5074314;28;19966;-86
2024/03/01 10:49:35;;;;;;;;;;;;;;;8.28;61.51;97075.34;5069070;28;19967;-86
2024/03/01 10:52:07;;;;;;;;;;;;;;;8.25;62.10;97077.88;5063668;28;19924;-85
2024/03/01 10:54:36;;;;;;;;;;;;;;;8.42;62.30;97083.38;5070647;28;19935;-84
2024/03/01 10:57:04;;;;;;;;;;;;;;;8.31;62.18;97080.13;5057594;28;19925;-86
2024/03/01 10:59:35;;;;;;;;;;;;;;;8.44;62.15;97083.84;5078326;28;19928;-86
2024/03/01 11:02:08;;;;;;;;;;;;;;;8.53;61.79;97075.72;5051911;28;19931;-87
2024/03/01 11:04:39;;;;;;;;;;;;;;;8.35;62.25;97070.25;5068389;28;19936;-86
2024/03/01 11:07:10;;;;;;;;;;;;;;;8.49;61.66;97070.16;5073843;28;19924;-85
2024/03/01 11:09:40;;;;;;;;;;;;;;;8.58;61.57;97079.06;5072446;28;19947;-85
2024/03/01 11:12:11;;;;;;;;;;;;;;;8.63;61.77;97086.25;5055797;28;19931;-83
2024/03/01 11:14:42;;;;;;;;;;;;;;;8.24;62.08;97087.91;5072037;28;19932;-85
2024/03/01 11:17:10;;;;;;;;;;;;;;;8.46;62.17;97081.59;5074361;28;19967;-86
2024/03/01 11:19:38;;;;;;;;;;;;;;;8.53;62.58;97073.81;5073500;28;19924;-85
2024/03/01 11:22:11;;;;;;;;;;;;;;;8.59;62.04;97075.25;5053663;28;19932;-85
2024/03/01 11:24:42;;;;;;;;;;;;;;;8.73;61.47;97075.06;5057092;28;19924;-85
2024/03/01 11:27:11;;;;;;;;;;;;;;;8.72;61.99;97073.47;5059451;28;19932;-85
2024/03/01 11:29:42;;;;;;;;;;;;;;;8.59;62.00;97069.81;5055278;28;19925;-88
2024/03/01 11:32:11;;;;;;;;;;;;;;;8.57;61.60;97060.41;5046210;28;19957;-87
2024/03/01 11:34:43;;;;;;;;;;;;;;;8.75;62.01;97063.94;5065056;28;19924;-79
2024/03/01 11:37:13;;;;;;;;;;;;;;;8.69;61.54;97068.72;5075237;28;19931;-79
2024/03/01 11:39:45;;;;;;;;;;;;;;;8.81;62.17;97077.00;5047763;28;19958;-78
2024/03/01 11:42:23;;;;;;;;;;;;;;;8.79;61.91;97073.81;5052535;28;19932;-78
2024/03/01 11:45:02;;;;;;;;;;;;;;;8.82;62.13;97065.03;5067933;28;19931;-78
2024/03/01 11:47:32;;;;;;;;;;;;;;;8.92;61.89;97062.00;5060762;28;19932;-79
2024/03/01 11:50:07;;;;;;;;;;;;;;;8.89;61.33;97067.25;5068642;28;20469;-79
2024/03/01 11:52:53;;;;;;;;;;;;;;;9.04;61.60;97063.25;5065541;28;20371;-84
2024/03/01 11:55:23;;;;;;;;;;;;;;;9.27;60.68;97056.50;5049487;28;19967;-78
2024/03/01 11:57:53;;;;;;;;;;;;;;;9.29;59.70;97053.47;5046611;28;19928;-78
2024/03/01 12:00:28;;;;;;;;;;;;;;;9.23;60.05;97058.28;5050690;28;19939;-78
2024/03/01 12:03:04;;;;;;;;;;;;;;;9.28;59.81;97041.84;5064504;28;19924;-77
2024/03/01 12:05:35;;;;;;;;;;;;;;;9.50;59.72;97031.88;5052881;28;19925;-78
2024/03/01 12:08:11;;;;;;;;;;;;;;;9.56;59.86;97022.44;5060884;28;19944;-78
2024/03/01 12:10:43;;;;;;;;;;;;;;;9.70;59.09;97028.44;5058248;28;19973;-78
2024/03/01 12:13:12;;;;;;;;;;;;;;;9.63;59.47;97015.38;5067579;28;19931;-78
2024/03/01 12:15:46;;;;;;;;;;;;;;;9.59;59.28;97013.66;5061004;28;19931;-78
2024/03/01 12:18:19;;;;;;;;;;;;;;;9.78;58.70;97016.72;5069673;28;19929;-77
2024/03/01 12:20:49;;;;;;;;;;;;;;;9.76;58.71;97012.78;5067074;28;19929;-78
2024/03/01 12:23:21;;;;;;;;;;;;;;;9.86;58.45;97012.41;5061103;28;19982;-78
2024/03/01 12:25:49;;;;;;;;;;;;;;;9.86;59.13;97006.97;5065201;28;19931;-78
2024/03/01 12:28:22;;;;;;;;;;;;;;;9.85;58.80;97008.88;5035774;28;20023;-78
2024/03/01 12:30:58;;;;;;;;;;;;;;;9.79;58.84;97012.91;5066441;28;19928;-78
2024/03/01 12:33:30;;;;;;;;;;;;;;;9.86;59.01;97012.41;5071311;28;19936;-78
2024/03/01 12:35:59;;;;;;;;;;;;;;;9.84;58.94;97015.41;5067373;28;19931;-78
2024/03/01 12:38:30;;;;;;;;;;;;;;;10.00;58.65;97021.06;5051701;28;19933;-77
2024/03/01 12:41:07;;;;;;;;;;;;;;;9.78;59.04;97027.59;5072645;28;20046;-79
2024/03/01 12:43:47;;;;;;;;;;;;;;;9.70;59.23;97031.16;5069976;28;20281;-82
2024/03/01 12:46:21;;;;;;;;;;;;;;;9.81;59.44;97028.88;5063114;28;20334;-83
2024/03/01 12:48:51;;;;;;;;;;;;;;;9.88;58.93;97029.91;5072905;28;19925;-83
2024/03/01 12:51:22;;;;;;;;;;;;;;;9.88;59.15;97031.84;5070880;28;20386;-83
2024/03/01 12:54:02;;;;;;;;;;;;;;;9.85;58.92;97022.44;5059742;28;19924;-78
2024/03/01 12:56:37;;;;;;;;;;;;;;;10.01;58.61;97022.66;5068657;28;19931;-78
2024/03/01 12:59:09;;;;;;;;;;;;;;;10.03;58.80;97022.34;5051293;28;20027;-78
2024/03/01 13:01:40;;;;;;;;;;;;;;;10.10;58.74;97017.97;5065836;28;19932;-78
2024/03/01 13:04:10;;;;;;;;;;;;;;;10.08;58.46;97014.00;5064170;28;19929;-78
2024/03/01 13:06:37;;;;;;;;;;;;;;;9.95;58.72;97013.13;5066583;28;20372;-78
2024/03/01 13:09:14;;;;;;;;;;;;;;;9.96;58.66;97018.25;5052070;28;19932;-78
2024/03/01 13:11:42;;;;;;;;;;;;;;;9.91;58.68;97014.91;5069821;28;19928;-79
2024/03/01 13:14:12;;;;;;;;;;;;;;;10.12;58.55;97012.22;5066754;28;19931;-78
2024/03/01 13:16:41;;;;;;;;;;;;;;;10.13;58.23;97006.47;5049531;28;19929;-78
2024/03/01 13:19:12;;;;;;;;;;;;;;;10.13;58.56;97006.47;5066497;28;19954;-78
2024/03/01 13:21:42;;;;;;;;;;;;;;;10.28;57.84;97001.59;5050190;28;19929;-78
2024/03/01 13:24:15;;;;;;;;;;;;;;;10.28;57.64;96996.16;5062781;28;19929;-78
2024/03/01 13:26:44;;;;;;;;;;;;;;;10.40;57.47;97002.47;5051120;28;20486;-78